Beach Hampton, New York
Current Conditions -  °F | °C
As of 4:56 AM on Friday 24 Oct 2014 (Local Time) from KGON Reporting Station
Overcast Overcast  
Wind Chill: 50°   Ceiling: 1600
Heat Index: 50°   Visibility: 10mi
Dew Point: 47°   Wind: 12mph
Humidity: 89%   Direction: 330°NNW
Pressure: 29.68"   Gusts: NA
Location:  40.9764°N, 72.1316°W
Report Text: KGON 240856Z AUTO 33010KT 10SM BKN016 OVC024 10/08 A2968 RMK AO2 SLP051 T01000083 53007
Loading
Personal Weather Stations






























Interactive Weather Map
Tropical Storm Tracking
New forecast layout! Learn more

10-Day Weather Forecast

Advertisements
Track Severe Weather on mobile